createdAt,value
2018-07-07T00:00:09.150Z,16.68
2018-07-07T00:01:19.227Z,16.8
2018-07-07T00:02:29.081Z,16.68
2018-07-07T00:03:39.152Z,16.69
2018-07-07T00:04:49.239Z,16.68
2018-07-07T00:05:59.314Z,16.65
2018-07-07T00:07:09.105Z,16.54
2018-07-07T00:08:18.960Z,16.68
2018-07-07T00:09:29.009Z,16.64
2018-07-07T00:10:39.082Z,16.66
2018-07-07T00:11:48.899Z,16.68
2018-07-07T00:12:58.705Z,16.65
2018-07-07T00:14:08.850Z,16.64
2018-07-07T00:15:18.665Z,16.76
2018-07-07T00:16:28.734Z,16.76
2018-07-07T00:17:38.530Z,16.72
2018-07-07T00:18:48.639Z,16.79
2018-07-07T00:19:58.761Z,16.86
2018-07-07T00:21:08.554Z,16.86
2018-07-07T00:22:18.090Z,16.83
2018-07-07T00:23:27.884Z,16.89
2018-07-07T00:24:37.664Z,16.82
2018-07-07T00:25:47.785Z,16.77
2018-07-07T00:26:57.581Z,16.74
2018-07-07T00:28:07.396Z,16.77
2018-07-07T00:29:16.918Z,16.79
2018-07-07T00:30:26.998Z,16.79
2018-07-07T00:31:36.848Z,16.77
2018-07-07T00:32:46.904Z,16.82
2018-07-07T00:33:56.151Z,16.77
2018-07-07T00:35:05.668Z,16.8
2018-07-07T00:36:15.467Z,16.83
2018-07-07T00:37:25.326Z,16.83
2018-07-07T00:38:35.132Z,16.76
2018-07-07T00:39:44.912Z,16.86
2018-07-07T00:40:54.987Z,16.79
2018-07-07T00:42:05.058Z,16.89
2018-07-07T00:43:14.913Z,16.83
2018-07-07T00:44:24.987Z,16.95
2018-07-07T00:45:34.518Z,16.86
2018-07-07T00:46:44.324Z,16.82
2018-07-07T00:47:54.098Z,16.91
2018-07-07T00:49:03.939Z,16.82
2018-07-07T00:50:13.745Z,16.69
2018-07-07T00:51:23.813Z,16.64
2018-07-07T00:52:33.599Z,16.69
2018-07-07T00:53:43.673Z,16.58
2018-07-07T00:54:53.517Z,16.51
2018-07-07T00:56:03.572Z,16.62
2018-07-07T00:57:13.374Z,16.55
2018-07-07T00:58:23.450Z,16.47
2018-07-07T00:59:32.706Z,16.4
2018-07-07T01:00:42.294Z,16.39
2018-07-07T01:01:52.107Z,16.32
2018-07-07T01:03:02.188Z,16.29
2018-07-07T01:04:11.721Z,16.26
2018-07-07T01:05:21.798Z,16.13
2018-07-07T01:06:31.644Z,16.21
2018-07-07T01:07:41.444Z,16.05
2018-07-07T01:08:51.509Z,16.12
2018-07-07T01:10:01.587Z,16.06
2018-07-07T01:11:11.113Z,16.18
2018-07-07T01:12:21.244Z,16.16
2018-07-07T01:13:31.301Z,16.1
2018-07-07T01:14:41.386Z,16.1
2018-07-07T01:15:51.472Z,16.17
2018-07-07T01:17:01.574Z,16.1
2018-07-07T01:18:11.704Z,16.17
2018-07-07T01:19:21.757Z,16.22
2018-07-07T01:20:31.296Z,16.17
2018-07-07T01:21:41.364Z,16.17
2018-07-07T01:22:51.437Z,16.22
2018-07-07T01:24:01.012Z,16.16
2018-07-07T01:25:10.825Z,16.17
2018-07-07T01:26:20.888Z,16.21
2018-07-07T01:27:30.665Z,16.21
2018-07-07T01:28:40.740Z,16.13
2018-07-07T01:29:50.586Z,16.16
2018-07-07T01:31:00.371Z,16.13
2018-07-07T01:32:09.900Z,16.17
2018-07-07T01:33:19.968Z,16.25
2018-07-07T01:34:29.755Z,16.09
2018-07-07T01:35:39.878Z,16.12
2018-07-07T01:36:49.692Z,16.22
2018-07-07T01:37:59.217Z,16.13
2018-07-07T01:39:09.025Z,16.18
2018-07-07T01:40:18.848Z,16.05
2018-07-07T01:41:28.428Z,16.05
2018-07-07T01:42:38.251Z,16.1
2018-07-07T01:43:48.305Z,16.08
2018-07-07T01:44:58.109Z,16.05
2018-07-07T01:46:07.919Z,16.06
2018-07-07T01:47:17.780Z,16.03
2018-07-07T01:48:27.589Z,16.08
2018-07-07T01:49:37.172Z,15.98
2018-07-07T01:50:46.999Z,16.06
2018-07-07T01:51:57.085Z,16.05
2018-07-07T01:53:06.730Z,15.98
2018-07-07T01:54:16.808Z,15.98
2018-07-07T01:55:26.615Z,15.96
2018-07-07T01:56:36.686Z,16.02
2018-07-07T01:57:46.485Z,16
2018-07-07T01:58:56.615Z,16.03
2018-07-07T02:00:06.417Z,16.06
2018-07-07T02:01:15.941Z,16.03
2018-07-07T02:02:25.753Z,15.99
2018-07-07T02:03:35.824Z,15.91
2018-07-07T02:04:45.946Z,16
2018-07-07T02:05:55.998Z,16.06
2018-07-07T02:07:05.786Z,16.02
2018-07-07T02:08:15.870Z,16.1
2018-07-07T02:09:25.658Z,16.08
2018-07-07T02:10:35.806Z,16.03
2018-07-07T02:11:45.880Z,15.94
2018-07-07T02:12:55.672Z,15.85
2018-07-07T02:14:05.472Z,15.88
2018-07-07T02:15:15.263Z,15.75
2018-07-07T02:16:24.839Z,15.75
2018-07-07T02:17:34.651Z,15.67
2018-07-07T02:18:44.579Z,15.73
2018-07-07T02:19:54.499Z,15.6
2018-07-07T02:21:04.019Z,15.67
2018-07-07T02:22:13.594Z,15.48
2018-07-07T02:23:23.138Z,15.41
2018-07-07T02:24:33.219Z,15.29
2018-07-07T02:25:43.282Z,15.27
2018-07-07T02:26:53.354Z,15.35
2018-07-07T02:28:03.491Z,15.33
2018-07-07T02:29:13.288Z,15.32
2018-07-07T02:30:23.374Z,15.19
2018-07-07T02:31:32.914Z,15.32
2018-07-07T02:32:42.996Z,15.23
2018-07-07T02:33:52.854Z,15.26
2018-07-07T02:35:02.932Z,15.3
2018-07-07T02:36:12.475Z,15.32
2018-07-07T02:37:22.546Z,15.27
2018-07-07T02:38:32.641Z,15.23
2018-07-07T02:39:42.779Z,15.22
2018-07-07T02:40:52.836Z,15.18
2018-07-07T02:42:02.920Z,15.23
2018-07-07T02:43:12.446Z,15.22
2018-07-07T02:44:21.983Z,15.19
2018-07-07T02:45:31.549Z,15.23
2018-07-07T02:46:41.633Z,15.22
2018-07-07T02:47:51.704Z,15.19
2018-07-07T02:49:01.516Z,15.17
2018-07-07T02:50:11.312Z,15.18
2018-07-07T02:51:21.462Z,15.19
2018-07-07T02:52:31.253Z,15.27
2018-07-07T02:53:41.335Z,15.22
2018-07-07T02:54:51.424Z,15.22
2018-07-07T02:56:01.490Z,15.12
2018-07-07T02:57:11.088Z,15.14
2018-07-07T02:58:20.907Z,15.19
2018-07-07T02:59:30.449Z,15.1
2018-07-07T03:03:45.963Z,14.94
2018-07-07T03:04:55.754Z,14.89
2018-07-07T03:06:05.269Z,14.74
2018-07-07T03:07:15.079Z,14.66
2018-07-07T03:08:24.914Z,14.52
2018-07-07T03:09:35.039Z,14.44
2018-07-07T03:10:44.857Z,14.4
2018-07-07T03:11:54.946Z,14.28
2018-07-07T03:13:05.038Z,14.28
2018-07-07T03:14:14.556Z,14.16
2018-07-07T03:15:24.407Z,14.04
2018-07-07T03:16:33.962Z,14.07
2018-07-07T03:17:43.761Z,13.97
2018-07-07T03:18:53.584Z,13.93
2018-07-07T03:20:03.412Z,13.83
2018-07-07T03:21:13.269Z,13.82
2018-07-07T03:22:23.065Z,13.76
2018-07-07T03:23:32.598Z,13.86
2018-07-07T03:24:42.153Z,13.75
2018-07-07T03:25:52.234Z,13.73
2018-07-07T03:27:02.348Z,13.64
2018-07-07T03:28:11.611Z,13.7
2018-07-07T03:29:21.397Z,13.73
2018-07-07T03:30:30.918Z,13.7
2018-07-07T03:31:40.971Z,13.67
2018-07-07T03:32:50.822Z,13.64
2018-07-07T03:34:00.620Z,13.67
2018-07-07T03:35:10.419Z,13.65
2018-07-07T03:36:20.464Z,13.68
2018-07-07T03:37:30.267Z,13.78
2018-07-07T03:38:40.400Z,13.85
2018-07-07T03:39:50.481Z,13.79
2018-07-07T03:41:00.281Z,13.82
2018-07-07T03:42:10.476Z,13.89
2018-07-07T03:43:20.150Z,13.86
2018-07-07T03:44:29.726Z,13.93
2018-07-07T03:45:39.842Z,13.98
2018-07-07T03:46:49.935Z,14.07
2018-07-07T03:48:00.013Z,14.11
2018-07-07T03:49:09.846Z,14.12
2018-07-07T03:50:19.773Z,14.15
2018-07-07T03:51:29.295Z,14.31
2018-07-07T03:52:39.370Z,14.3
2018-07-07T03:53:49.185Z,14.37
2018-07-07T03:54:58.998Z,14.61
2018-07-07T03:56:09.116Z,14.56
2018-07-07T03:57:18.920Z,14.58
2018-07-07T03:58:28.723Z,14.7
2018-07-07T03:59:38.519Z,14.79
2018-07-07T04:00:48.342Z,14.77
2018-07-07T04:01:58.198Z,14.82
2018-07-07T04:03:07.985Z,14.86
2018-07-07T04:04:18.056Z,14.89
2018-07-07T04:05:28.130Z,15.07
2018-07-07T04:06:38.179Z,15.07
2018-07-07T04:07:48.032Z,15.05
2018-07-07T04:08:57.572Z,15.11
2018-07-07T04:10:06.822Z,15.17
2018-07-07T04:11:16.892Z,15.12
2018-07-07T04:12:26.686Z,15.23
2018-07-07T04:13:36.528Z,15.17
2018-07-07T04:14:46.585Z,15.22
2018-07-07T04:15:56.640Z,15.14
2018-07-07T04:17:06.450Z,15.25
2018-07-07T04:18:16.258Z,15.3
2018-07-07T04:19:26.389Z,15.35
2018-07-07T04:20:36.199Z,15.29
2018-07-07T04:21:46.249Z,15.32
2018-07-07T04:22:56.058Z,15.33
2018-07-07T04:24:05.886Z,15.29
2018-07-07T04:25:15.192Z,15.29
2018-07-07T04:26:24.996Z,15.33
2018-07-07T04:27:34.798Z,15.44
2018-07-07T04:28:44.868Z,15.41
2018-07-07T04:29:54.677Z,15.43
2018-07-07T04:31:04.794Z,15.3
2018-07-07T04:32:14.588Z,15.33
2018-07-07T04:33:24.653Z,15.39
2018-07-07T04:34:34.728Z,15.41
2018-07-07T04:35:44.821Z,15.45
2018-07-07T04:36:54.678Z,15.52
2018-07-07T04:38:04.215Z,15.59
2018-07-07T04:39:14.274Z,15.6
2018-07-07T04:40:24.057Z,15.65
2018-07-07T04:41:33.858Z,15.73
2018-07-07T04:42:43.972Z,15.78
2018-07-07T04:43:53.765Z,15.78
2018-07-07T04:45:03.296Z,15.83
2018-07-07T04:46:13.096Z,15.85
2018-07-07T04:47:22.920Z,15.85
2018-07-07T04:48:32.496Z,15.75
2018-07-07T04:49:42.560Z,15.83
2018-07-07T04:50:52.632Z,15.9
2018-07-07T04:52:02.701Z,15.76
2018-07-07T04:53:12.783Z,15.85
2018-07-07T04:54:22.360Z,15.96
2018-07-07T04:55:31.622Z,15.9
2018-07-07T04:56:41.165Z,15.91
2018-07-07T04:57:51.230Z,15.94
2018-07-07T04:59:01.320Z,15.92
2018-07-07T05:00:11.183Z,15.84
2018-07-07T05:01:20.717Z,15.84
2018-07-07T05:02:30.794Z,15.87
2018-07-07T05:03:40.314Z,15.78
2018-07-07T05:04:50.392Z,15.87
2018-07-07T05:06:00.220Z,15.85
2018-07-07T05:07:10.027Z,15.96
2018-07-07T05:08:20.111Z,15.92
2018-07-07T05:09:29.906Z,15.92
2018-07-07T05:10:39.971Z,16
2018-07-07T05:11:50.090Z,15.88
2018-07-07T05:13:00.166Z,16.02
2018-07-07T05:14:10.265Z,15.99
2018-07-07T05:15:20.334Z,16.05
2018-07-07T05:16:29.925Z,16.08
2018-07-07T05:17:40.056Z,16.25
2018-07-07T05:18:49.873Z,16.25
2018-07-07T05:19:59.679Z,16.31
2018-07-07T05:21:09.474Z,16.32
2018-07-07T05:22:19.275Z,16.31
2018-07-07T05:23:29.118Z,16.31
2018-07-07T05:24:39.187Z,16.31
2018-07-07T05:25:49.263Z,16.39
2018-07-07T05:26:59.331Z,16.43
2018-07-07T05:28:09.125Z,16.4
2018-07-07T05:29:19.241Z,16.44
2018-07-07T05:30:29.045Z,16.41
2018-07-07T05:31:39.159Z,16.44
2018-07-07T05:32:48.715Z,16.44
2018-07-07T05:33:58.517Z,16.41
2018-07-07T05:35:08.626Z,16.41
2018-07-07T05:36:18.693Z,16.47
2018-07-07T05:37:28.505Z,16.55
2018-07-07T05:38:38.041Z,16.44
2018-07-07T05:39:47.846Z,16.55
2018-07-07T05:40:57.971Z,16.51
2018-07-07T05:42:07.773Z,16.57
2018-07-07T05:43:17.854Z,16.55
2018-07-07T05:44:27.662Z,16.57
2018-07-07T05:45:37.718Z,16.58
2018-07-07T05:46:47.842Z,16.55
2018-07-07T05:47:57.639Z,16.43
2018-07-07T05:49:07.429Z,16.44
2018-07-07T05:50:17.231Z,16.49
2018-07-07T05:51:26.748Z,16.36
2018-07-07T05:52:36.884Z,16.25
2018-07-07T05:53:46.954Z,16.4
2018-07-07T05:54:56.756Z,16.37
2018-07-07T05:56:06.833Z,16.47
2018-07-07T05:57:16.368Z,16.4
2018-07-07T05:58:26.555Z,16.37
2018-07-07T05:59:36.065Z,16.46
2018-07-07T06:00:45.882Z,16.49
2018-07-07T06:01:55.956Z,16.4
2018-07-07T06:03:06.019Z,16.47
2018-07-07T06:04:15.897Z,16.49
2018-07-07T06:05:25.966Z,16.59
2018-07-07T06:06:36.022Z,16.61
2018-07-07T06:07:46.110Z,16.55
2018-07-07T06:08:56.186Z,16.51
2018-07-07T06:10:06.092Z,16.76
2018-07-07T06:11:16.168Z,16.51
2018-07-07T06:12:25.713Z,16.57
2018-07-07T06:13:35.240Z,16.64
2018-07-07T06:14:44.807Z,16.65
2018-07-07T06:15:54.936Z,16.68
2018-07-07T06:17:04.744Z,16.65
2018-07-07T06:18:14.291Z,16.62
2018-07-07T06:19:24.462Z,16.68
2018-07-07T06:20:34.279Z,16.69
2018-07-07T06:21:44.137Z,16.72
2018-07-07T06:22:54.216Z,16.8
2018-07-07T06:24:04.018Z,16.73
2018-07-07T06:25:13.851Z,16.77
2018-07-07T06:26:23.733Z,16.87
2018-07-07T06:27:34.012Z,16.82
2018-07-07T06:28:44.077Z,16.86
2018-07-07T06:29:54.150Z,16.83
2018-07-07T06:31:03.953Z,16.84
2018-07-07T06:32:13.736Z,16.82
2018-07-07T06:33:23.307Z,16.83
2018-07-07T06:34:33.112Z,16.8
2018-07-07T06:35:42.922Z,16.79
2018-07-07T06:37:02.990Z,16.84
2018-07-07T06:38:16.241Z,16.86
2018-07-07T06:39:26.084Z,16.95
2018-07-07T06:40:36.027Z,16.95
2018-07-07T06:41:46.083Z,17.02
2018-07-07T06:42:55.897Z,17.13
2018-07-07T06:44:05.757Z,17.05
2018-07-07T06:45:15.837Z,17.05
2018-07-07T06:46:25.894Z,17.16
2018-07-07T06:47:35.961Z,17.12
2018-07-07T06:48:45.756Z,17.23
2018-07-07T06:49:55.866Z,17.28
2018-07-07T06:51:05.939Z,17.27
2018-07-07T06:52:15.718Z,17.23
2018-07-07T06:53:25.253Z,17.34
2018-07-07T06:54:35.328Z,17.38
2018-07-07T06:55:44.912Z,17.38
2018-07-07T06:56:54.714Z,17.39
2018-07-07T06:58:04.771Z,17.47
2018-07-07T06:59:14.582Z,17.5
2018-07-07T07:00:24.659Z,17.6
2018-07-07T07:01:34.509Z,17.66
2018-07-07T07:02:44.060Z,17.69
2018-07-07T07:03:53.879Z,17.66
2018-07-07T07:05:03.957Z,17.71
2018-07-07T07:06:13.742Z,17.8
2018-07-07T07:07:23.318Z,17.8
2018-07-07T07:08:33.117Z,17.73
2018-07-07T07:09:42.382Z,17.9
2018-07-07T07:10:51.919Z,17.87
2018-07-07T07:12:02.181Z,17.87
2018-07-07T07:13:12.125Z,17.93
2018-07-07T07:14:22.216Z,17.95
2018-07-07T07:15:31.477Z,18.03
2018-07-07T07:16:41.285Z,18.11
2018-07-07T07:17:51.427Z,18.03
2018-07-07T07:19:01.562Z,18.12
2018-07-07T07:20:10.548Z,18.19
2018-07-07T07:21:20.332Z,18.21
2018-07-07T07:22:30.404Z,18.23
2018-07-07T07:23:40.470Z,18.23
2018-07-07T07:24:50.614Z,18.23
2018-07-07T07:26:00.618Z,18.3
2018-07-07T07:27:11.021Z,18.3
2018-07-07T07:28:20.558Z,18.31
2018-07-07T07:29:30.372Z,18.39
2018-07-07T07:30:40.505Z,18.31
2018-07-07T07:31:50.587Z,18.48
2018-07-07T07:33:00.513Z,18.45
2018-07-07T07:34:10.126Z,18.53
2018-07-07T07:35:20.193Z,18.46
2018-07-07T07:36:30.355Z,18.48
2018-07-07T07:37:40.457Z,18.53
2018-07-07T07:38:50.540Z,18.61
2018-07-07T07:40:00.056Z,18.66
2018-07-07T07:41:09.861Z,18.58
2018-07-07T07:42:19.704Z,18.7
2018-07-07T07:43:29.232Z,18.61
2018-07-07T07:44:39.059Z,18.43
2018-07-07T07:45:48.838Z,18.51
2018-07-07T07:46:58.634Z,18.49
2018-07-07T07:48:08.212Z,18.55
2018-07-07T07:49:18.006Z,18.63
2018-07-07T07:50:27.818Z,18.66
2018-07-07T07:51:37.908Z,18.76
2018-07-07T07:52:48.185Z,18.79
2018-07-07T07:53:58.044Z,18.82
2018-07-07T07:55:08.122Z,18.76
2018-07-07T07:56:17.927Z,18.78
2018-07-07T07:57:27.996Z,18.76
2018-07-07T07:58:37.809Z,18.79
2018-07-07T07:59:47.933Z,18.78
2018-07-07T08:00:57.455Z,18.68
2018-07-07T08:02:07.279Z,18.81
2018-07-07T08:03:17.362Z,18.78
2018-07-07T08:04:27.166Z,18.94
2018-07-07T08:05:37.293Z,18.91
2018-07-07T08:06:47.080Z,18.91
2018-07-07T08:07:57.157Z,18.85
2018-07-07T08:09:07.305Z,18.61
2018-07-07T08:10:17.390Z,18.58
2018-07-07T08:11:27.255Z,18.63
2018-07-07T08:12:37.107Z,18.76
2018-07-07T08:13:47.169Z,18.73
2018-07-07T08:14:56.961Z,18.79
2018-07-07T08:16:06.799Z,18.81
2018-07-07T08:17:16.644Z,18.85
2018-07-07T08:18:26.190Z,18.89
2018-07-07T08:19:35.993Z,18.85
2018-07-07T08:20:46.045Z,18.74
2018-07-07T08:21:56.182Z,18.82
2018-07-07T08:23:06.219Z,18.83
2018-07-07T08:24:16.045Z,18.89
2018-07-07T08:25:26.105Z,18.86
2018-07-07T08:26:35.905Z,18.91
2018-07-07T08:27:45.991Z,18.85
2018-07-07T08:28:56.091Z,18.89
2018-07-07T08:30:05.878Z,18.88
2018-07-07T08:31:15.949Z,18.89
2018-07-07T08:32:25.735Z,18.98
2018-07-07T08:33:35.813Z,19.04
2018-07-07T08:34:45.941Z,19.16
2018-07-07T08:35:56.093Z,19.19
2018-07-07T08:37:05.893Z,19.12
2018-07-07T08:38:15.941Z,19.2
2018-07-07T08:39:25.999Z,19.17
2018-07-07T08:40:36.137Z,19.22
2018-07-07T08:41:45.711Z,19.23
2018-07-07T08:42:55.632Z,19.11
2018-07-07T08:44:05.712Z,19.27
2018-07-07T08:45:15.527Z,19.35
2018-07-07T08:46:25.375Z,19.24
2018-07-07T08:47:34.906Z,19.3
2018-07-07T08:48:44.729Z,19.22
2018-07-07T08:49:54.535Z,19.38
2018-07-07T08:51:04.607Z,19.42
2018-07-07T08:52:14.185Z,19.37
2018-07-07T08:53:24.264Z,19.45
2018-07-07T08:54:34.059Z,19.32
2018-07-07T08:55:43.873Z,19.48
2018-07-07T08:56:53.954Z,19.41
2018-07-07T08:58:03.260Z,19.47
2018-07-07T08:59:13.074Z,19.41
2018-07-07T09:00:22.871Z,19.44
2018-07-07T09:01:32.652Z,19.45
2018-07-07T09:02:42.732Z,19.45
2018-07-07T09:03:52.841Z,19.57
2018-07-07T09:05:02.901Z,19.62
2018-07-07T09:06:12.428Z,19.66
2018-07-07T09:07:22.232Z,19.67
2018-07-07T09:08:32.016Z,19.74
2018-07-07T09:09:41.589Z,19.82
2018-07-07T09:10:51.398Z,19.89
2018-07-07T09:12:01.478Z,19.94
2018-07-07T09:13:11.548Z,19.99
2018-07-07T09:14:21.899Z,19.96
2018-07-07T09:15:31.832Z,19.92
2018-07-07T09:16:41.641Z,19.99
2018-07-07T09:17:51.447Z,20.03
2018-07-07T09:19:01.508Z,20.11
2018-07-07T09:20:11.308Z,20.04
2018-07-07T09:21:21.697Z,20.11
2018-07-07T09:22:31.859Z,20.1
2018-07-07T09:23:41.916Z,20.15
2018-07-07T09:24:51.997Z,20.19
2018-07-07T09:26:01.820Z,20.17
2018-07-07T09:27:11.693Z,20.21
2018-07-07T09:28:21.512Z,20.22
2018-07-07T09:29:31.573Z,20.34
2018-07-07T09:30:41.642Z,20.32
2018-07-07T09:31:51.725Z,20.42
2018-07-07T09:33:01.300Z,20.53
2018-07-07T09:34:11.396Z,20.63
2018-07-07T09:35:21.218Z,20.64
2018-07-07T09:36:31.296Z,20.64
2018-07-07T09:37:41.088Z,20.63
2018-07-07T09:38:51.083Z,20.75
2018-07-07T09:40:01.314Z,20.73
2018-07-07T09:41:10.843Z,20.8
2018-07-07T09:42:20.401Z,20.83
2018-07-07T09:43:30.199Z,20.89
2018-07-07T09:44:40.314Z,20.93
2018-07-07T09:45:50.398Z,21
2018-07-07T09:47:00.484Z,21.05
2018-07-07T09:48:10.311Z,21.13
2018-07-07T09:49:20.381Z,21.19
2018-07-07T09:50:30.230Z,21.22
2018-07-07T09:51:40.311Z,21.13
2018-07-07T09:52:50.119Z,21.2
2018-07-07T09:53:59.913Z,21.25
2018-07-07T09:55:09.722Z,21.25
2018-07-07T09:56:19.960Z,21.23
2018-07-07T09:57:30.282Z,21.32
2018-07-07T09:58:40.098Z,21.15
2018-07-07T09:59:49.632Z,21.17
2018-07-07T10:00:59.703Z,21.25
2018-07-07T10:02:09.569Z,21.26
2018-07-07T10:03:19.387Z,21.29
2018-07-07T10:04:28.648Z,21.3
2018-07-07T10:05:38.468Z,21.37
2018-07-07T10:06:48.282Z,21.35
2018-07-07T10:07:58.397Z,21.19
2018-07-07T10:09:07.919Z,21.14
2018-07-07T10:10:17.462Z,21.1
2018-07-07T10:11:27.534Z,21.13
2018-07-07T10:12:37.344Z,21.08
2018-07-07T10:13:47.486Z,20.82
2018-07-07T10:14:57.554Z,20.82
2018-07-07T10:16:06.831Z,20.77
2018-07-07T10:17:16.356Z,20.8
2018-07-07T10:18:25.903Z,20.86
2018-07-07T10:19:35.757Z,20.7
2018-07-07T10:20:45.973Z,20.8
2018-07-07T10:21:55.886Z,20.86
2018-07-07T10:23:05.692Z,20.9
2018-07-07T10:24:15.244Z,21.01
2018-07-07T10:25:24.825Z,21.1
2018-07-07T10:26:34.425Z,21.26
2018-07-07T10:27:43.952Z,21.35
2018-07-07T10:28:53.491Z,21.56
2018-07-07T10:30:03.586Z,21.3
2018-07-07T10:31:13.447Z,21.48
2018-07-07T10:32:23.502Z,21.25
2018-07-07T10:33:33.591Z,21.37
2018-07-07T10:34:43.669Z,21.23
2018-07-07T10:35:53.188Z,20.75
2018-07-07T10:37:03.057Z,20.56
2018-07-07T10:38:13.031Z,20.4
2018-07-07T10:39:23.287Z,20.48
2018-07-07T10:40:33.345Z,20.6
2018-07-07T10:41:43.418Z,20.37
2018-07-07T10:42:53.544Z,20.3
2018-07-07T10:44:03.075Z,20.53
2018-07-07T10:45:12.602Z,20.68
2018-07-07T10:46:22.401Z,20.75
2018-07-07T10:47:32.614Z,20.85
2018-07-07T10:48:42.391Z,20.86
2018-07-07T10:49:52.212Z,21
2018-07-07T10:51:02.019Z,21
2018-07-07T10:52:11.833Z,20.95
2018-07-07T10:53:21.648Z,20.9
2018-07-07T10:54:31.499Z,21.01
2018-07-07T10:55:41.735Z,21.04
2018-07-07T10:56:51.806Z,21.11
2018-07-07T10:58:01.594Z,21.23
2018-07-07T10:59:11.678Z,20.93
2018-07-07T11:00:21.263Z,21.1
2018-07-07T11:01:31.060Z,21.17
2018-07-07T11:02:41.193Z,21.1
2018-07-07T11:03:50.817Z,20.98
2018-07-07T11:05:00.913Z,20.92
2018-07-07T11:06:11.050Z,20.95
2018-07-07T11:07:20.855Z,20.9
2018-07-07T11:08:30.664Z,21.08
2018-07-07T11:09:40.197Z,21.05
2018-07-07T11:10:50.275Z,21.2
2018-07-07T11:12:00.096Z,21.32
2018-07-07T11:13:10.072Z,21.62
2018-07-07T11:14:20.167Z,21.84
2018-07-07T11:15:30.241Z,21.81
2018-07-07T11:16:40.051Z,21.7
2018-07-07T11:17:49.921Z,21.53
2018-07-07T11:18:59.985Z,21.7
2018-07-07T11:20:09.947Z,21.88
2018-07-07T11:21:19.752Z,21.85
2018-07-07T11:22:29.287Z,21.89
2018-07-07T11:23:39.211Z,22.25
2018-07-07T11:24:49.078Z,22.22
2018-07-07T11:25:58.890Z,22.21
2018-07-07T11:27:08.705Z,22.19
2018-07-07T11:28:17.972Z,22.04
2018-07-07T11:29:27.821Z,22.08
2018-07-07T11:30:37.906Z,21.83
2018-07-07T11:31:48.030Z,21.85
2018-07-07T11:32:58.118Z,22.12
2018-07-07T11:34:07.935Z,22.26
2018-07-07T11:35:17.793Z,22.4
2018-07-07T11:36:27.547Z,22.43
2018-07-07T11:37:37.976Z,22.51
2018-07-07T11:38:47.791Z,22.43
2018-07-07T11:39:57.848Z,22.63
2018-07-07T11:41:07.984Z,22.67
2018-07-07T11:42:18.210Z,22.46
2018-07-07T11:43:28.562Z,22.07
2018-07-07T11:44:38.635Z,21.83
2018-07-07T11:45:48.438Z,21.91
2018-07-07T11:46:58.297Z,21.81
2018-07-07T11:48:08.100Z,22.16
2018-07-07T11:49:18.185Z,22.16
2018-07-07T11:50:28.348Z,22.25
2018-07-07T11:51:38.571Z,22.3
2018-07-07T11:52:48.432Z,22.44
2018-07-07T11:53:58.515Z,22.65
2018-07-07T11:55:08.318Z,22.81
2018-07-07T11:56:18.410Z,23.01
2018-07-07T11:57:28.479Z,23.28
2018-07-07T11:58:38.359Z,23.55
2018-07-07T11:59:48.429Z,23.66
2018-07-07T12:00:58.232Z,23.92
2018-07-07T12:02:08.171Z,24.21
2018-07-07T12:03:18.250Z,24.38
2018-07-07T12:04:28.218Z,24.48
2018-07-07T12:05:38.623Z,24.62
2018-07-07T12:06:48.153Z,24.62
2018-07-07T12:08:18.965Z,24.71
2018-07-07T12:09:28.865Z,24.75
2018-07-07T12:10:37.851Z,24.86
2018-07-07T12:11:47.683Z,25
2018-07-07T12:12:57.763Z,25.16
2018-07-07T12:14:07.846Z,25.31
2018-07-07T12:15:17.720Z,25.25
2018-07-07T12:16:27.516Z,25.4
2018-07-07T12:17:37.150Z,25.76
2018-07-07T12:18:47.253Z,25.98
2018-07-07T12:19:57.080Z,26.18
2018-07-07T12:21:06.412Z,26.66
2018-07-07T12:22:16.225Z,26.88
2018-07-07T12:23:26.033Z,27.01
2018-07-07T12:24:36.110Z,27.16
2018-07-07T12:25:46.199Z,27.28
2018-07-07T12:26:55.772Z,26.74
2018-07-07T12:28:05.926Z,26.71
2018-07-07T12:29:15.988Z,26.76
2018-07-07T12:30:25.810Z,25.85
2018-07-07T12:31:35.942Z,26.15
2018-07-07T12:32:45.810Z,26.52
2018-07-07T12:33:55.903Z,26.67
2018-07-07T12:35:05.978Z,26.78
2018-07-07T12:36:15.240Z,27.11
2018-07-07T12:37:25.048Z,27.23
2018-07-07T12:38:35.168Z,27.04
2018-07-07T12:39:44.975Z,27.52
2018-07-07T12:40:55.007Z,27.98
2018-07-07T12:42:05.209Z,28.35
2018-07-07T12:43:14.744Z,28.67
2018-07-07T12:44:24.880Z,29.21
2018-07-07T12:45:34.440Z,29.25
2018-07-07T12:46:44.538Z,29.44
2018-07-07T12:47:54.346Z,28.82
2018-07-07T12:49:04.447Z,29.31
2018-07-07T12:50:13.788Z,29.84
2018-07-07T12:51:23.612Z,30.44
2018-07-07T12:52:32.899Z,30.98
2018-07-07T12:53:42.993Z,31.33
2018-07-07T12:54:53.076Z,31.7
2018-07-07T12:56:02.937Z,31.98
2018-07-07T12:57:12.749Z,30.01
2018-07-07T12:58:22.845Z,29.16
2018-07-07T12:59:32.665Z,29.22
2018-07-07T13:00:42.759Z,30.06
2018-07-07T13:01:52.355Z,30.67
2018-07-07T13:03:02.171Z,31
2018-07-07T13:04:11.720Z,31.51
2018-07-07T13:05:21.541Z,31.87
2018-07-07T13:06:31.361Z,31.22
2018-07-07T13:07:41.495Z,30.51
2018-07-07T13:08:51.323Z,30.81
2018-07-07T13:10:01.414Z,30.96
2018-07-07T13:11:11.510Z,31.67
2018-07-07T13:12:21.336Z,32.29
2018-07-07T13:13:31.200Z,33
2018-07-07T13:14:41.284Z,33.5
2018-07-07T13:15:51.099Z,34.04
2018-07-07T13:17:01.179Z,33.54
2018-07-07T13:18:10.732Z,31.59
2018-07-07T13:19:20.597Z,32.42
2018-07-07T13:20:30.418Z,33.05
2018-07-07T13:21:40.246Z,33.44
2018-07-07T13:22:50.330Z,33.6
2018-07-07T13:23:59.884Z,34.07
2018-07-07T13:25:09.758Z,32.48
2018-07-07T13:26:19.678Z,31.86
2018-07-07T13:27:29.609Z,32.64
2018-07-07T13:28:39.703Z,32.83
2018-07-07T13:29:49.254Z,31.67
2018-07-07T13:30:59.128Z,31.1
2018-07-07T13:32:08.947Z,31.45
2018-07-07T13:33:19.002Z,32.07
2018-07-07T13:34:29.330Z,30.89
2018-07-07T13:35:39.426Z,30.46
2018-07-07T13:36:49.281Z,30.76
2018-07-07T13:37:59.370Z,31.11
2018-07-07T13:39:09.188Z,30.48
2018-07-07T13:40:18.479Z,29.76
2018-07-07T13:41:28.311Z,30.06
2018-07-07T13:42:38.185Z,30.52
2018-07-07T13:43:48.279Z,31.15
2018-07-07T13:44:58.102Z,31.52
2018-07-07T13:46:07.369Z,31.02
2018-07-07T13:47:17.179Z,31.55
2018-07-07T13:48:27.318Z,32.2
2018-07-07T13:49:37.137Z,32.61
2018-07-07T13:50:46.959Z,33.08
2018-07-07T13:51:56.519Z,33.19
2018-07-07T13:53:06.330Z,33.73
2018-07-07T13:54:16.487Z,33.54
2018-07-07T13:55:26.565Z,32.48
2018-07-07T13:56:36.397Z,33.08
2018-07-07T13:57:46.224Z,33.75
2018-07-07T13:58:56.043Z,34.35
2018-07-07T14:00:06.215Z,35.03
2018-07-07T14:01:16.295Z,35.54
2018-07-07T14:02:26.102Z,35.63
2018-07-07T14:03:35.684Z,36.13
2018-07-07T14:04:45.767Z,36.55
2018-07-07T14:05:55.644Z,37.06
2018-07-07T14:07:05.474Z,37.4
2018-07-07T14:08:15.299Z,37.67
2018-07-07T14:09:25.459Z,37.94
2018-07-07T14:10:35.687Z,38.12
2018-07-07T14:11:45.559Z,38.62
2018-07-07T14:12:55.381Z,38.95
2018-07-07T14:14:05.506Z,39.29
2018-07-07T14:15:15.582Z,39.63
2018-07-07T14:16:25.406Z,40.05
2018-07-07T14:17:35.957Z,40.05
2018-07-07T14:18:46.095Z,38.84
2018-07-07T14:19:55.914Z,36.06
2018-07-07T14:21:05.457Z,35.94
2018-07-07T14:22:15.024Z,34.6
2018-07-07T14:23:25.201Z,34.31
2018-07-07T14:24:35.146Z,33.81
2018-07-07T14:25:44.709Z,34.37
2018-07-07T14:26:54.520Z,34.55
2018-07-07T14:28:04.344Z,33.87
2018-07-07T14:29:13.975Z,32.29
2018-07-07T14:30:24.076Z,32.54
2018-07-07T14:31:33.884Z,33.26
2018-07-07T14:32:43.427Z,33.08
2018-07-07T14:33:53.515Z,32.45
2018-07-07T14:35:03.649Z,32.81
2018-07-07T14:36:13.749Z,32.02
2018-07-07T14:37:23.589Z,32.75
2018-07-07T14:38:33.557Z,33.48
2018-07-07T14:39:43.657Z,34.21
2018-07-07T14:40:53.808Z,34.86
2018-07-07T14:42:03.622Z,35.59
2018-07-07T14:43:13.709Z,36.13
2018-07-07T14:44:23.528Z,36.54
2018-07-07T14:45:33.740Z,37
2018-07-07T14:46:43.726Z,36.96
2018-07-07T14:47:53.559Z,36.22
2018-07-07T14:49:03.647Z,36.55
2018-07-07T14:50:13.754Z,36.2
2018-07-07T14:51:23.831Z,35.52
2018-07-07T14:52:33.813Z,35.56
2018-07-07T14:53:43.628Z,35.26
2018-07-07T14:54:53.703Z,33.54
2018-07-07T14:56:03.524Z,32.34
2018-07-07T14:57:13.068Z,32.83
2018-07-07T14:58:22.877Z,33.39
2018-07-07T14:59:32.710Z,33.31
2018-07-07T15:00:41.986Z,33.15
2018-07-07T15:01:51.797Z,33.05
2018-07-07T15:03:01.619Z,32.93
2018-07-07T15:04:11.582Z,33.45
2018-07-07T15:05:21.406Z,33.75
2018-07-07T15:06:31.244Z,34.28